Oscar Tybring IV — LAGK — position and weather

sailwx.info

Track history (hours):
 
Tides and Currents Weather Stations Pressure Air Temp Water Temp Dewpoint Dewpoint Depression Visibility Wind Speed Wind Dir Waves Ship Positions

Oscar Tybring IV

Last reported at 2017-Sep-23 21:30 UTC. Time now 2017-Sep-23 21:44 UTC.
Position N 58°06' E 006°48'.

Length 20 m.

Type: SAR. MMSI: 257231500.

Date/timePositionNaut miles runAvg speedWind from/ knotsBaromVisibWave heightAir tempDewpointWater temp
2017-Sep-23 21:30N 58°06' E 006°48'0 0.0
2017-Sep-23 21:00N 58°06' E 006°48'0 0.0
2017-Sep-23 20:30N 58°06' E 006°48'0 0.0
2017-Sep-23 20:00N 58°06' E 006°48'0 0.0
2017-Sep-22 02:00N 58°06' E 006°48'0 0.0
2017-Sep-22 01:30N 58°06' E 006°48'0 0.0
2017-Sep-22 01:00N 58°06' E 006°48'0 0.0
2017-Sep-22 00:30N 58°06' E 006°48'0 0.0
2017-Sep-22 00:00N 58°06' E 006°48'0 0.0
2017-Sep-21 23:30N 58°06' E 006°48'0 0.0
2017-Sep-21 23:00N 58°06' E 006°48'0 0.0
2017-Sep-21 22:30N 58°06' E 006°48'0 0.0
2017-Sep-21 22:00N 58°06' E 006°48'1 2.5
2017-Sep-21 21:30N 58°05' E 006°50'1 2.5
2017-Sep-21 21:00N 58°06' E 006°48'0 0.0
2017-Sep-21 20:30N 58°06' E 006°48'0 0.0
2017-Sep-21 20:00N 58°06' E 006°48'0 0.0
2017-Sep-21 19:30N 58°06' E 006°48'0 0.0
2017-Sep-21 19:00N 58°06' E 006°48'0 0.0
2017-Sep-21 18:30N 58°06' E 006°48'510.5
2017-Sep-21 18:01N 58°02' E 006°55'3 5.1
2017-Sep-21 17:30N 58°03' E 006°51'3 5.1
2017-Sep-21 16:59N 58°06' E 006°48'0 0.0
2017-Sep-21 16:29N 58°06' E 006°48'0 0.0
2017-Sep-21 15:59N 58°06' E 006°48'0 0.0
2017-Sep-21 15:29N 58°06' E 006°48'0 0.0
2017-Sep-21 14:59N 58°06' E 006°48'0 0.0
2017-Sep-21 14:29N 58°06' E 006°48'0 0.0
2017-Sep-21 13:59N 58°06' E 006°48'0 0.0
2017-Sep-21 13:29N 58°06' E 006°48'0 0.0
2017-Sep-21 12:59N 58°06' E 006°48'0 0.0
2017-Sep-21 12:29N 58°06' E 006°48'0 0.0
2017-Sep-21 11:59N 58°06' E 006°48'0 0.0
2017-Sep-21 11:28N 58°06' E 006°48'0 0.0
2017-Sep-21 10:59N 58°06' E 006°48'0 0.0
2017-Sep-21 10:29N 58°06' E 006°48'0 0.0
2017-Sep-21 09:59N 58°06' E 006°48'0 0.0
2017-Sep-21 09:29N 58°06' E 006°48'0 0.0
2017-Sep-21 08:59N 58°06' E 006°48'0 0.0
2017-Sep-21 08:29N 58°06' E 006°48'0 0.0
2017-Sep-21 08:00N 58°06' E 006°48'0 0.0
2017-Sep-21 07:30N 58°06' E 006°48'0 0.0
2017-Sep-21 07:00N 58°06' E 006°48'0 0.0
2017-Sep-21 06:30N 58°06' E 006°48'1 2.0
2017-Sep-21 06:00N 58°05' E 006°49'0 0.6
2017-Sep-21 05:30N 58°05' E 006°49'1 1.3
2017-Sep-21 04:59N 58°06' E 006°48'0 0.0
2017-Sep-21 04:29N 58°06' E 006°48'0 0.0
2017-Sep-21 03:59N 58°06' E 006°48'0 0.0
2017-Sep-21 03:29N 58°06' E 006°48'0 0.0
2017-Sep-21 02:59N 58°06' E 006°48'0 0.0
2017-Sep-21 02:29N 58°06' E 006°48'0 0.0
2017-Sep-21 01:59N 58°06' E 006°48'0 0.0
2017-Sep-21 01:29N 58°06' E 006°48'0 0.0
2017-Sep-21 00:59N 58°06' E 006°48'0 0.0
2017-Sep-21 00:29N 58°06' E 006°48'0 0.0
2017-Sep-20 23:59N 58°06' E 006°48'0 0.0
2017-Sep-20 23:29N 58°06' E 006°48'0 0.0
2017-Sep-20 22:59N 58°06' E 006°48'0 0.0
2017-Sep-20 22:29N 58°06' E 006°48'0 0.0
2017-Sep-20 21:59N 58°06' E 006°48'0 0.0
2017-Sep-20 21:29N 58°06' E 006°48'0 0.0
2017-Sep-20 20:59N 58°06' E 006°48'0 0.0
2017-Sep-20 20:29N 58°06' E 006°48'0 0.0
2017-Sep-20 19:59N 58°06' E 006°48'0 0.0
2017-Sep-20 19:29N 58°06' E 006°48'0 0.0
2017-Sep-20 18:59N 58°06' E 006°48'0 0.0
2017-Sep-20 18:29N 58°06' E 006°48'0 0.0
2017-Sep-20 17:59N 58°06' E 006°48'0 0.0
2017-Sep-20 17:29N 58°06' E 006°48'0 0.0
2017-Sep-20 16:59N 58°06' E 006°48'0 0.0
2017-Sep-20 16:29N 58°06' E 006°48'0 0.0
2017-Sep-20 15:59N 58°06' E 006°48'0 0.0
2017-Sep-20 15:29N 58°06' E 006°48'0 0.0
2017-Sep-20 14:59N 58°06' E 006°48'0 0.0
2017-Sep-20 14:00N 58°06' E 006°48'0 0.0
2017-Sep-20 13:31N 58°06' E 006°48'0 0.0
2017-Sep-20 13:01N 58°06' E 006°48'0 0.0
2017-Sep-20 12:31N 58°06' E 006°48'0 0.3
2017-Sep-20 12:01N 58°06' E 006°49'611.7
2017-Sep-20 11:31N 58°03' E 006°59'611.9
2017-Sep-20 11:00N 58°06' E 006°48'0 0.0
2017-Sep-20 10:30N 58°06' E 006°48'0 0.0
2017-Sep-20 10:00N 58°06' E 006°48'0 0.0
2017-Sep-20 09:31N 58°06' E 006°48'0 0.0
2017-Sep-20 09:00N 58°06' E 006°48'0 0.0
2017-Sep-20 08:30N 58°06' E 006°48'0 0.0
2017-Sep-20 08:00N 58°06' E 006°48'0 0.0
2017-Sep-20 07:30N 58°06' E 006°48'0 0.0
2017-Sep-20 07:00N 58°06' E 006°48'0 0.0
2017-Sep-20 06:31N 58°06' E 006°48'0 0.0
2017-Sep-20 06:01N 58°06' E 006°48'0 0.0
2017-Sep-20 05:30N 58°06' E 006°48'0 0.0
2017-Sep-20 05:00N 58°06' E 006°48'0 0.0
2017-Sep-20 04:30N 58°06' E 006°48'0 0.0
2017-Sep-20 04:00N 58°06' E 006°48'0 0.0
2017-Sep-20 03:30N 58°06' E 006°48'0 0.0
2017-Sep-20 03:00N 58°06' E 006°48'0 0.0
2017-Sep-20 02:30N 58°06' E 006°48'0 0.0
2017-Sep-20 02:00N 58°06' E 006°48'0 0.0
2017-Sep-20 01:30N 58°06' E 006°48'0 0.0
2017-Sep-20 01:00N 58°06' E 006°48'0 0.0
2017-Sep-20 00:30N 58°06' E 006°48'0 0.0
2017-Sep-20 00:00N 58°06' E 006°48'0 0.0
2017-Sep-19 23:30N 58°06' E 006°48'0 0.0
2017-Sep-19 23:00N 58°06' E 006°48'0 0.0
2017-Sep-19 22:30N 58°06' E 006°48'0 0.0
2017-Sep-19 22:00N 58°06' E 006°48'0 0.0
2017-Sep-19 21:30N 58°06' E 006°48'0 0.0
2017-Sep-19 21:00N 58°06' E 006°48'0 0.0
2017-Sep-19 20:30N 58°06' E 006°48'0 0.0
2017-Sep-19 20:00N 58°06' E 006°48'0 0.0
2017-Sep-19 19:30N 58°06' E 006°48'0 0.0
2017-Sep-19 19:00N 58°06' E 006°48'0 0.0
2017-Sep-19 18:30N 58°06' E 006°48'0 0.0
2017-Sep-19 18:00N 58°06' E 006°48'0 0.0
2017-Sep-19 17:30N 58°06' E 006°48'0 0.0
2017-Sep-19 17:00N 58°06' E 006°48'0 0.0
2017-Sep-19 16:30N 58°06' E 006°48'0 0.0
2017-Sep-19 16:00N 58°06' E 006°48'0 0.0
2017-Sep-19 15:30N 58°06' E 006°48'0 0.0
2017-Sep-19 15:00N 58°06' E 006°48'0 0.0
2017-Sep-19 14:30N 58°06' E 006°48'0 0.0
2017-Sep-19 14:00N 58°06' E 006°48'0 0.0
2017-Sep-19 13:30N 58°06' E 006°48'0 0.0
2017-Sep-19 13:00N 58°06' E 006°48'0 0.0
2017-Sep-19 12:30N 58°06' E 006°48'4 7.6
2017-Sep-19 12:00N 58°02' E 006°51'4 7.4
2017-Sep-19 11:30N 58°06' E 006°48'0 0.0
2017-Sep-19 11:00N 58°06' E 006°48'0 0.0
2017-Sep-19 10:30N 58°06' E 006°48'0 0.0
2017-Sep-19 10:00N 58°06' E 006°48'0 0.0
2017-Sep-19 09:30N 58°06' E 006°48'0 0.0
2017-Sep-19 09:00N 58°06' E 006°48'0 0.0
2017-Sep-19 08:30N 58°06' E 006°48'0 0.0
2017-Sep-19 08:00N 58°06' E 006°48'0 0.0
2017-Sep-19 07:30N 58°06' E 006°48'0 0.0
2017-Sep-19 07:00N 58°06' E 006°48'4 7.6
2017-Sep-19 06:31N 58°02' E 006°49'4 7.0
2017-Sep-19 05:58N 58°06' E 006°48'0 0.0
2017-Sep-19 05:28N 58°06' E 006°48'0 0.0
2017-Sep-19 04:58N 58°06' E 006°48'0 0.0
2017-Sep-19 04:28N 58°06' E 006°48'0 0.0
2017-Sep-19 03:58N 58°06' E 006°48'0 0.0
2017-Sep-19 03:25N 58°06' E 006°48'0 0.0
2017-Sep-19 02:58N 58°06' E 006°48'0 0.0
2017-Sep-19 02:28N 58°06' E 006°48'0 0.0
2017-Sep-19 01:58N 58°06' E 006°48'0 0.0
2017-Sep-19 01:28N 58°06' E 006°48'0 0.0
2017-Sep-19 00:58N 58°06' E 006°48'0 0.0
2017-Sep-19 00:28N 58°06' E 006°48'0 0.0
2017-Sep-18 23:58N 58°06' E 006°48'0 0.0
2017-Sep-18 23:28N 58°06' E 006°48'0 0.0
2017-Sep-18 22:58N 58°06' E 006°48'0 0.0
2017-Sep-18 22:28N 58°06' E 006°48'0 0.0
2017-Sep-18 21:58N 58°06' E 006°48'0 0.0
2017-Sep-18 21:28N 58°06' E 006°48'0 0.0
2017-Sep-18 20:58N 58°06' E 006°48'0 0.0
2017-Sep-18 20:28N 58°06' E 006°48'0 0.0
2017-Sep-18 19:58N 58°06' E 006°48'0 0.0
2017-Sep-18 19:28N 58°06' E 006°48'0 0.0
2017-Sep-18 18:58N 58°06' E 006°48'0 0.0
2017-Sep-18 18:29N 58°06' E 006°48'0 0.0
2017-Sep-18 17:59N 58°06' E 006°48'2 3.5
2017-Sep-18 17:30N 58°05' E 006°51'1 2.9
2017-Sep-18 17:01N 58°06' E 006°49'0 0.4
2017-Sep-18 16:29N 58°06' E 006°48'0 0.0
2017-Sep-18 15:58N 58°06' E 006°48'0 0.0
2017-Sep-18 15:28N 58°06' E 006°48'0 0.0
2017-Sep-18 14:58N 58°06' E 006°48'0 0.0
2017-Sep-18 14:28N 58°06' E 006°48'0 0.0
2017-Sep-18 13:59N 58°06' E 006°48'0 0.0
2017-Sep-18 13:29N 58°06' E 006°48'0 0.0
2017-Sep-18 12:59N 58°06' E 006°48'0 0.0
2017-Sep-18 12:28N 58°06' E 006°48'0 0.0
2017-Sep-18 11:58N 58°06' E 006°48'0 0.0
2017-Sep-18 11:28N 58°06' E 006°48'0 0.0
2017-Sep-18 10:58N 58°06' E 006°48'0 0.0
2017-Sep-18 10:28N 58°06' E 006°48'0 0.0
2017-Sep-18 09:58N 58°06' E 006°48'0 0.0
2017-Sep-18 09:28N 58°06' E 006°48'0 0.0
2017-Sep-18 08:59N 58°06' E 006°48'0 0.0
2017-Sep-18 08:28N 58°06' E 006°48'0 0.0
2017-Sep-18 07:58N 58°06' E 006°48'0 0.0
2017-Sep-18 07:28N 58°06' E 006°48'0 0.0
2017-Sep-18 06:58N 58°06' E 006°48'0 0.0
2017-Sep-18 06:28N 58°06' E 006°48'0 0.0
2017-Sep-18 05:58N 58°06' E 006°48'0 0.0
2017-Sep-18 05:28N 58°06' E 006°48'0 0.0
2017-Sep-18 04:58N 58°06' E 006°48'0 0.0
2017-Sep-18 04:29N 58°06' E 006°48'0 0.0
2017-Sep-18 03:59N 58°06' E 006°48'0 0.0
2017-Sep-18 03:28N 58°06' E 006°48'0 0.0
2017-Sep-18 02:58N 58°06' E 006°48'0 0.0
2017-Sep-18 02:28N 58°06' E 006°48'0 0.0
2017-Sep-18 01:58N 58°06' E 006°48'0 0.0
2017-Sep-18 01:28N 58°06' E 006°48'0 0.0
2017-Sep-18 00:58N 58°06' E 006°48'0 0.0
2017-Sep-18 00:28N 58°06' E 006°48'0 0.0
2017-Sep-17 23:58N 58°06' E 006°48'0 0.0
2017-Sep-17 23:28N 58°06' E 006°48'0 0.0
2017-Sep-17 22:58N 58°06' E 006°48'0 0.0
2017-Sep-17 22:28N 58°06' E 006°48'0 0.0
2017-Sep-17 21:58N 58°06' E 006°48'0 0.0
2017-Sep-17 21:28N 58°06' E 006°48'0 0.0
2017-Sep-17 20:58N 58°06' E 006°48'0 0.0
2017-Sep-17 20:28N 58°06' E 006°48'0 0.0
2017-Sep-17 19:58N 58°06' E 006°48'0 0.0
2017-Sep-17 19:28N 58°06' E 006°48'0 0.0
2017-Sep-17 18:58N 58°06' E 006°48'0 0.0
2017-Sep-17 18:28N 58°06' E 006°48'0 0.0
2017-Sep-17 17:58N 58°06' E 006°48'0 0.0
2017-Sep-17 17:28N 58°06' E 006°48'0 0.0
2017-Sep-17 16:58N 58°06' E 006°48'0 0.0
2017-Sep-17 16:28N 58°06' E 006°48'0 0.0
2017-Sep-17 15:58N 58°06' E 006°48'0 0.0
2017-Sep-17 15:28N 58°06' E 006°48'0 0.0
2017-Sep-17 14:58N 58°06' E 006°48'0 0.0
2017-Sep-17 14:28N 58°06' E 006°48'0 0.0
2017-Sep-17 13:59N 58°06' E 006°48'0 0.0
2017-Sep-17 13:28N 58°06' E 006°48'0 0.0
2017-Sep-17 12:58N 58°06' E 006°48'0 0.0
2017-Sep-17 12:28N 58°06' E 006°48'0 0.0
2017-Sep-17 11:58N 58°06' E 006°48'0 0.0
2017-Sep-17 11:28N 58°06' E 006°48'0 0.0
2017-Sep-17 10:58N 58°06' E 006°48'0 0.0
2017-Sep-17 10:28N 58°06' E 006°48'0 0.0
2017-Sep-17 09:58N 58°06' E 006°48'0 0.0
2017-Sep-17 09:28N 58°06' E 006°48'0 0.0
2017-Sep-17 08:58N 58°06' E 006°48'0 0.0
2017-Sep-17 08:28N 58°06' E 006°48'0 0.0
2017-Sep-17 07:58N 58°06' E 006°48'0 0.0
2017-Sep-17 07:28N 58°06' E 006°48'0 0.0
2017-Sep-17 06:58N 58°06' E 006°48'0 0.0
2017-Sep-17 06:28N 58°06' E 006°48'0 0.0
2017-Sep-17 05:58N 58°06' E 006°48'0 0.0
2017-Sep-17 05:28N 58°06' E 006°48'0 0.0
2017-Sep-17 04:58N 58°06' E 006°48'0 0.0
2017-Sep-17 04:28N 58°06' E 006°48'0 0.0
2017-Sep-17 03:58N 58°06' E 006°48'0 0.0
2017-Sep-17 03:28N 58°06' E 006°48'0 0.0
2017-Sep-17 02:58N 58°06' E 006°48'0 0.0
2017-Sep-17 02:28N 58°06' E 006°48'0 0.0
2017-Sep-17 01:58N 58°06' E 006°48'0 0.0
2017-Sep-17 01:28N 58°06' E 006°48'0 0.0
2017-Sep-17 00:58N 58°06' E 006°48'0 0.0
2017-Sep-17 00:28N 58°06' E 006°48'0 0.0
2017-Sep-16 23:58N 58°06' E 006°48'0 0.0
2017-Sep-16 23:28N 58°06' E 006°48'0 0.0
2017-Sep-16 22:58N 58°06' E 006°48'0 0.0
2017-Sep-16 22:28N 58°06' E 006°48'0 0.0
2017-Sep-16 21:58N 58°06' E 006°48'0 0.0
2017-Sep-16 21:28N 58°06' E 006°48'0 0.0
2017-Sep-16 20:58N 58°06' E 006°48'0 0.0
2017-Sep-16 20:28N 58°06' E 006°48'0 0.0
2017-Sep-16 19:58N 58°06' E 006°48'0 0.0
2017-Sep-16 19:28N 58°06' E 006°48'0 0.0
2017-Sep-16 18:58N 58°06' E 006°48'0 0.0
2017-Sep-16 18:28N 58°06' E 006°48'0 0.0
2017-Sep-16 17:58N 58°06' E 006°48'0 0.0
2017-Sep-16 17:28N 58°06' E 006°48'0 0.0
2017-Sep-16 16:58N 58°06' E 006°48'0 0.0
2017-Sep-16 16:28N 58°06' E 006°48'0 0.0
2017-Sep-16 15:58N 58°06' E 006°48'0 0.0
2017-Sep-16 15:28N 58°06' E 006°48'0 0.0
2017-Sep-16 14:58N 58°06' E 006°48'0 0.0
2017-Sep-16 14:28N 58°06' E 006°48'0 0.0
2017-Sep-16 13:55N 58°06' E 006°48'0 0.0
2017-Sep-16 13:28N 58°06' E 006°48'0 0.0
2017-Sep-16 12:58N 58°06' E 006°48'0 0.0
2017-Sep-16 12:28N 58°06' E 006°48'0 0.0
2017-Sep-16 11:58N 58°06' E 006°48'0 0.0
2017-Sep-16 11:28N 58°06' E 006°48'0 0.0
2017-Sep-16 10:58N 58°06' E 006°48'0 0.0
2017-Sep-16 10:28N 58°06' E 006°48'0 0.0
2017-Sep-16 09:58N 58°06' E 006°48'0 0.0
2017-Sep-16 09:28N 58°06' E 006°48'0 0.0
2017-Sep-16 08:58N 58°06' E 006°48'0 0.0
2017-Sep-16 08:28N 58°06' E 006°48'0 0.0
2017-Sep-16 07:58N 58°06' E 006°48'0 0.0
2017-Sep-16 07:28N 58°06' E 006°48'0 0.0
2017-Sep-16 06:58N 58°06' E 006°48'0 0.0
2017-Sep-16 06:28N 58°06' E 006°48'0 0.0
2017-Sep-16 05:58N 58°06' E 006°48'0 0.0
2017-Sep-16 05:28N 58°06' E 006°48'0 0.0
2017-Sep-16 04:58N 58°06' E 006°48'0 0.0
2017-Sep-16 04:28N 58°06' E 006°48'0 0.0
2017-Sep-16 03:58N 58°06' E 006°48'0 0.0
2017-Sep-16 03:28N 58°06' E 006°48'0 0.0
2017-Sep-16 02:58N 58°06' E 006°48'0 0.0
2017-Sep-16 02:28N 58°06' E 006°48'0 0.0
2017-Sep-16 01:58N 58°06' E 006°48'0 0.0
2017-Sep-16 01:28N 58°06' E 006°48'0 0.0
2017-Sep-16 00:58N 58°06' E 006°48'0 0.0
2017-Sep-16 00:28N 58°06' E 006°48'0 0.0
2017-Sep-15 23:58N 58°06' E 006°48'0 0.0
2017-Sep-15 23:28N 58°06' E 006°48'0 0.0
2017-Sep-15 22:58N 58°06' E 006°48'0 0.0
2017-Sep-15 22:28N 58°06' E 006°48'0 0.0
2017-Sep-15 21:58N 58°06' E 006°48'0 0.0
2017-Sep-15 21:28N 58°06' E 006°48'0 0.0
2017-Sep-15 20:58N 58°06' E 006°48'0 0.0
2017-Sep-15 20:28N 58°06' E 006°48'0 0.0
2017-Sep-15 19:58N 58°06' E 006°48'0 0.0
2017-Sep-15 19:28N 58°06' E 006°48'0 0.0
2017-Sep-15 18:58N 58°06' E 006°48'0 0.0
2017-Sep-15 18:28N 58°06' E 006°48'0 0.0
2017-Sep-15 17:58N 58°06' E 006°48'0 0.0
2017-Sep-15 17:28N 58°06' E 006°48'0 0.0
2017-Sep-15 16:58N 58°06' E 006°48'0 0.0
2017-Sep-15 16:28N 58°06' E 006°48'0 0.0
2017-Sep-15 15:58N 58°06' E 006°48'0 0.0
2017-Sep-15 15:28N 58°06' E 006°48'0 0.0
2017-Sep-15 14:58N 58°06' E 006°48'0 0.0
2017-Sep-15 14:28N 58°06' E 006°48'0 0.0
2017-Sep-15 13:58N 58°06' E 006°48'0 0.0
2017-Sep-15 13:28N 58°06' E 006°48'0 0.0
2017-Sep-15 12:58N 58°06' E 006°48'0 0.0
2017-Sep-15 12:28N 58°06' E 006°48'0 0.0
2017-Sep-15 11:58N 58°06' E 006°48'0 0.0
2017-Sep-15 11:28N 58°06' E 006°48'0 0.0
2017-Sep-15 10:58N 58°06' E 006°48'0 0.0
2017-Sep-15 10:28N 58°06' E 006°48'0 0.0
2017-Sep-15 09:58N 58°06' E 006°48'0 0.0
2017-Sep-15 09:28N 58°06' E 006°48'0 0.0
2017-Sep-15 08:58N 58°06' E 006°48'0 0.0
2017-Sep-15 08:28N 58°06' E 006°48'0 0.0
2017-Sep-15 07:58N 58°06' E 006°48'0 0.0
2017-Sep-15 07:28N 58°06' E 006°48'0 0.0
2017-Sep-15 06:58N 58°06' E 006°48'0 0.0
2017-Sep-15 06:28N 58°06' E 006°48'0 0.0
2017-Sep-15 05:58N 58°06' E 006°48'0 0.0
2017-Sep-15 05:28N 58°06' E 006°48'0 0.0
2017-Sep-15 04:58N 58°06' E 006°48'0 0.0
2017-Sep-15 04:28N 58°06' E 006°48'0 0.0
2017-Sep-15 03:58N 58°06' E 006°48'0 0.0
2017-Sep-15 03:28N 58°06' E 006°48'0 0.0
2017-Sep-15 02:58N 58°06' E 006°48'0 0.0
2017-Sep-15 02:28N 58°06' E 006°48'0 0.0
2017-Sep-15 01:58N 58°06' E 006°48'0 0.0
2017-Sep-15 01:28N 58°06' E 006°48'0 0.0
2017-Sep-15 00:58N 58°06' E 006°48'0 0.0
2017-Sep-15 00:28N 58°06' E 006°48'0 0.0
2017-Sep-14 23:58N 58°06' E 006°48'0 0.0
2017-Sep-14 23:28N 58°06' E 006°48'0 0.0
2017-Sep-14 22:58N 58°06' E 006°48'0 0.0
2017-Sep-14 22:28N 58°06' E 006°48'0 0.0
2017-Sep-14 21:58N 58°06' E 006°48'0 0.0
2017-Sep-14 21:28N 58°06' E 006°48'0 0.0
2017-Sep-14 20:58N 58°06' E 006°48'0 0.0
2017-Sep-14 20:28N 58°06' E 006°48'0 0.0
2017-Sep-14 19:58N 58°06' E 006°48'0 0.0
2017-Sep-14 19:28N 58°06' E 006°48'0 0.0
2017-Sep-14 18:58N 58°06' E 006°48'0 0.0
2017-Sep-14 18:28N 58°06' E 006°48'0 0.0
2017-Sep-14 17:58N 58°06' E 006°48'0 0.0
2017-Sep-14 17:25N 58°06' E 006°48'0 0.0
2017-Sep-14 16:58N 58°06' E 006°48'0 0.0
2017-Sep-14 16:28N 58°06' E 006°48'0 0.0
2017-Sep-14 15:58N 58°06' E 006°48'0 0.0
2017-Sep-14 15:28N 58°06' E 006°48'0 0.0
2017-Sep-14 14:58N 58°06' E 006°48'0 0.0
2017-Sep-14 14:28N 58°06' E 006°48'0 0.0
2017-Sep-14 13:58N 58°06' E 006°48'0 0.0
2017-Sep-14 13:28N 58°06' E 006°48'0 0.0
2017-Sep-14 12:58N 58°06' E 006°48'0 0.0
2017-Sep-14 12:28N 58°06' E 006°48'0 0.0
2017-Sep-14 11:58N 58°06' E 006°48'0 0.0
2017-Sep-14 11:28N 58°06' E 006°48'0 0.0
2017-Sep-14 10:58N 58°06' E 006°48'0 0.0
2017-Sep-14 10:28N 58°06' E 006°48'0 0.0
2017-Sep-14 09:58N 58°06' E 006°48'0 0.0
2017-Sep-14 09:28N 58°06' E 006°48'0 0.0
2017-Sep-14 08:58N 58°06' E 006°48'0 0.0
2017-Sep-14 08:28N 58°06' E 006°48'0 0.0
2017-Sep-14 07:58N 58°06' E 006°48'0 0.0
2017-Sep-14 07:28N 58°06' E 006°48'0 0.0
2017-Sep-14 06:58N 58°06' E 006°48'0 0.0
2017-Sep-14 06:28N 58°06' E 006°48'0 0.0
2017-Sep-14 05:58N 58°06' E 006°48'0 0.0
2017-Sep-14 05:28N 58°06' E 006°48'0 0.0
2017-Sep-14 04:58N 58°06' E 006°48'0 0.0
2017-Sep-14 04:28N 58°06' E 006°48'0 0.0
2017-Sep-14 03:58N 58°06' E 006°48'0 0.0
2017-Sep-14 03:28N 58°06' E 006°48'0 0.0
2017-Sep-14 02:58N 58°06' E 006°48'0 0.0
2017-Sep-14 02:28N 58°06' E 006°48'0 0.0
2017-Sep-14 01:58N 58°06' E 006°48'0 0.0
2017-Sep-14 01:28N 58°06' E 006°48'0 0.0
2017-Sep-14 00:58N 58°06' E 006°48'0 0.0
2017-Sep-14 00:28N 58°06' E 006°48'0 0.0
2017-Sep-13 23:58N 58°06' E 006°48'0 0.0
2017-Sep-13 23:28N 58°06' E 006°48'0 0.0
2017-Sep-13 22:58N 58°06' E 006°48'0 0.0
2017-Sep-13 22:28N 58°06' E 006°48'0 0.0
2017-Sep-13 21:58N 58°06' E 006°48'  
Track history (hours):
 
Tides and Currents Weather Stations Pressure Air Temp Water Temp Dewpoint Dewpoint Depression Visibility Wind Speed Wind Dir Waves Ship Positions

Oscar Tybring IV

Last reported at 2017-Sep-23 21:30 UTC. Time now 2017-Sep-23 21:44 UTC.
Position N 58°06' E 006°48'.

Length 20 m.

Type: SAR. MMSI: 257231500.

Date/timePositionNaut miles runAvg speedWind from/ knotsBaromVisibWave heightAir tempDewpointWater temp
2017-Sep-23 21:30N 58°06' E 006°48'0 0.0
2017-Sep-23 21:00N 58°06' E 006°48'0 0.0
2017-Sep-23 20:30N 58°06' E 006°48'0 0.0
2017-Sep-23 20:00N 58°06' E 006°48'0 0.0
2017-Sep-22 02:00N 58°06' E 006°48'0 0.0
2017-Sep-22 01:30N 58°06' E 006°48'0 0.0
2017-Sep-22 01:00N 58°06' E 006°48'0 0.0
2017-Sep-22 00:30N 58°06' E 006°48'0 0.0
2017-Sep-22 00:00N 58°06' E 006°48'0 0.0
2017-Sep-21 23:30N 58°06' E 006°48'0 0.0
2017-Sep-21 23:00N 58°06' E 006°48'0 0.0
2017-Sep-21 22:30N 58°06' E 006°48'0 0.0
2017-Sep-21 22:00N 58°06' E 006°48'1 2.5
2017-Sep-21 21:30N 58°05' E 006°50'1 2.5
2017-Sep-21 21:00N 58°06' E 006°48'0 0.0
2017-Sep-21 20:30N 58°06' E 006°48'0 0.0
2017-Sep-21 20:00N 58°06' E 006°48'0 0.0
2017-Sep-21 19:30N 58°06' E 006°48'0 0.0
2017-Sep-21 19:00N 58°06' E 006°48'0 0.0
2017-Sep-21 18:30N 58°06' E 006°48'510.5
2017-Sep-21 18:01N 58°02' E 006°55'3 5.1
2017-Sep-21 17:30N 58°03' E 006°51'3 5.1
2017-Sep-21 16:59N 58°06' E 006°48'0 0.0
2017-Sep-21 16:29N 58°06' E 006°48'0 0.0
2017-Sep-21 15:59N 58°06' E 006°48'0 0.0
2017-Sep-21 15:29N 58°06' E 006°48'0 0.0
2017-Sep-21 14:59N 58°06' E 006°48'0 0.0
2017-Sep-21 14:29N 58°06' E 006°48'0 0.0
2017-Sep-21 13:59N 58°06' E 006°48'0 0.0
2017-Sep-21 13:29N 58°06' E 006°48'0 0.0
2017-Sep-21 12:59N 58°06' E 006°48'0 0.0
2017-Sep-21 12:29N 58°06' E 006°48'0 0.0
2017-Sep-21 11:59N 58°06' E 006°48'0 0.0
2017-Sep-21 11:28N 58°06' E 006°48'0 0.0
2017-Sep-21 10:59N 58°06' E 006°48'0 0.0
2017-Sep-21 10:29N 58°06' E 006°48'0 0.0
2017-Sep-21 09:59N 58°06' E 006°48'0 0.0
2017-Sep-21 09:29N 58°06' E 006°48'0 0.0
2017-Sep-21 08:59N 58°06' E 006°48'0 0.0
2017-Sep-21 08:29N 58°06' E 006°48'0 0.0
2017-Sep-21 08:00N 58°06' E 006°48'0 0.0
2017-Sep-21 07:30N 58°06' E 006°48'0 0.0
2017-Sep-21 07:00N 58°06' E 006°48'0 0.0
2017-Sep-21 06:30N 58°06' E 006°48'1 2.0
2017-Sep-21 06:00N 58°05' E 006°49'0 0.6
2017-Sep-21 05:30N 58°05' E 006°49'1 1.3
2017-Sep-21 04:59N 58°06' E 006°48'0 0.0
2017-Sep-21 04:29N 58°06' E 006°48'0 0.0
2017-Sep-21 03:59N 58°06' E 006°48'0 0.0
2017-Sep-21 03:29N 58°06' E 006°48'0 0.0
2017-Sep-21 02:59N 58°06' E 006°48'0 0.0
2017-Sep-21 02:29N 58°06' E 006°48'0 0.0
2017-Sep-21 01:59N 58°06' E 006°48'0 0.0
2017-Sep-21 01:29N 58°06' E 006°48'0 0.0
2017-Sep-21 00:59N 58°06' E 006°48'0 0.0
2017-Sep-21 00:29N 58°06' E 006°48'0 0.0
2017-Sep-20 23:59N 58°06' E 006°48'0 0.0
2017-Sep-20 23:29N 58°06' E 006°48'0 0.0
2017-Sep-20 22:59N 58°06' E 006°48'0 0.0
2017-Sep-20 22:29N 58°06' E 006°48'0 0.0
2017-Sep-20 21:59N 58°06' E 006°48'0 0.0
2017-Sep-20 21:29N 58°06' E 006°48'0 0.0
2017-Sep-20 20:59N 58°06' E 006°48'0 0.0
2017-Sep-20 20:29N 58°06' E 006°48'0 0.0
2017-Sep-20 19:59N 58°06' E 006°48'0 0.0
2017-Sep-20 19:29N 58°06' E 006°48'0 0.0
2017-Sep-20 18:59N 58°06' E 006°48'0 0.0
2017-Sep-20 18:29N 58°06' E 006°48'0 0.0
2017-Sep-20 17:59N 58°06' E 006°48'0 0.0
2017-Sep-20 17:29N 58°06' E 006°48'0 0.0
2017-Sep-20 16:59N 58°06' E 006°48'0 0.0
2017-Sep-20 16:29N 58°06' E 006°48'0 0.0
2017-Sep-20 15:59N 58°06' E 006°48'0 0.0
2017-Sep-20 15:29N 58°06' E 006°48'0 0.0
2017-Sep-20 14:59N 58°06' E 006°48'0 0.0
2017-Sep-20 14:00N 58°06' E 006°48'0 0.0
2017-Sep-20 13:31N 58°06' E 006°48'0 0.0
2017-Sep-20 13:01N 58°06' E 006°48'0 0.0
2017-Sep-20 12:31N 58°06' E 006°48'0 0.3
2017-Sep-20 12:01N 58°06' E 006°49'611.7
2017-Sep-20 11:31N 58°03' E 006°59'611.9
2017-Sep-20 11:00N 58°06' E 006°48'0 0.0
2017-Sep-20 10:30N 58°06' E 006°48'0 0.0
2017-Sep-20 10:00N 58°06' E 006°48'0 0.0
2017-Sep-20 09:31N 58°06' E 006°48'0 0.0
2017-Sep-20 09:00N 58°06' E 006°48'0 0.0
2017-Sep-20 08:30N 58°06' E 006°48'0 0.0
2017-Sep-20 08:00N 58°06' E 006°48'0 0.0
2017-Sep-20 07:30N 58°06' E 006°48'0 0.0
2017-Sep-20 07:00N 58°06' E 006°48'0 0.0
2017-Sep-20 06:31N 58°06' E 006°48'0 0.0
2017-Sep-20 06:01N 58°06' E 006°48'0 0.0
2017-Sep-20 05:30N 58°06' E 006°48'0 0.0
2017-Sep-20 05:00N 58°06' E 006°48'0 0.0
2017-Sep-20 04:30N 58°06' E 006°48'0 0.0
2017-Sep-20 04:00N 58°06' E 006°48'0 0.0
2017-Sep-20 03:30N 58°06' E 006°48'0 0.0
2017-Sep-20 03:00N 58°06' E 006°48'0 0.0
2017-Sep-20 02:30N 58°06' E 006°48'0 0.0
2017-Sep-20 02:00N 58°06' E 006°48'0 0.0
2017-Sep-20 01:30N 58°06' E 006°48'0 0.0
2017-Sep-20 01:00N 58°06' E 006°48'0 0.0
2017-Sep-20 00:30N 58°06' E 006°48'0 0.0
2017-Sep-20 00:00N 58°06' E 006°48'0 0.0
2017-Sep-19 23:30N 58°06' E 006°48'0 0.0
2017-Sep-19 23:00N 58°06' E 006°48'0 0.0
2017-Sep-19 22:30N 58°06' E 006°48'0 0.0
2017-Sep-19 22:00N 58°06' E 006°48'0 0.0
2017-Sep-19 21:30N 58°06' E 006°48'0 0.0
2017-Sep-19 21:00N 58°06' E 006°48'0 0.0
2017-Sep-19 20:30N 58°06' E 006°48'0 0.0
2017-Sep-19 20:00N 58°06' E 006°48'0 0.0
2017-Sep-19 19:30N 58°06' E 006°48'0 0.0
2017-Sep-19 19:00N 58°06' E 006°48'0 0.0
2017-Sep-19 18:30N 58°06' E 006°48'0 0.0
2017-Sep-19 18:00N 58°06' E 006°48'0 0.0
2017-Sep-19 17:30N 58°06' E 006°48'0 0.0
2017-Sep-19 17:00N 58°06' E 006°48'0 0.0
2017-Sep-19 16:30N 58°06' E 006°48'0 0.0
2017-Sep-19 16:00N 58°06' E 006°48'0 0.0
2017-Sep-19 15:30N 58°06' E 006°48'0 0.0
2017-Sep-19 15:00N 58°06' E 006°48'0 0.0
2017-Sep-19 14:30N 58°06' E 006°48'0 0.0
2017-Sep-19 14:00N 58°06' E 006°48'0 0.0
2017-Sep-19 13:30N 58°06' E 006°48'0 0.0
2017-Sep-19 13:00N 58°06' E 006°48'0 0.0
2017-Sep-19 12:30N 58°06' E 006°48'4 7.6
2017-Sep-19 12:00N 58°02' E 006°51'4 7.4
2017-Sep-19 11:30N 58°06' E 006°48'0 0.0
2017-Sep-19 11:00N 58°06' E 006°48'0 0.0
2017-Sep-19 10:30N 58°06' E 006°48'0 0.0
2017-Sep-19 10:00N 58°06' E 006°48'0 0.0
2017-Sep-19 09:30N 58°06' E 006°48'0 0.0
2017-Sep-19 09:00N 58°06' E 006°48'0 0.0
2017-Sep-19 08:30N 58°06' E 006°48'0 0.0
2017-Sep-19 08:00N 58°06' E 006°48'0 0.0
2017-Sep-19 07:30N 58°06' E 006°48'0 0.0
2017-Sep-19 07:00N 58°06' E 006°48'4 7.6
2017-Sep-19 06:31N 58°02' E 006°49'4 7.0
2017-Sep-19 05:58N 58°06' E 006°48'0 0.0
2017-Sep-19 05:28N 58°06' E 006°48'0 0.0
2017-Sep-19 04:58N 58°06' E 006°48'0 0.0
2017-Sep-19 04:28N 58°06' E 006°48'0 0.0
2017-Sep-19 03:58N 58°06' E 006°48'0 0.0
2017-Sep-19 03:25N 58°06' E 006°48'0 0.0
2017-Sep-19 02:58N 58°06' E 006°48'0 0.0
2017-Sep-19 02:28N 58°06' E 006°48'0 0.0
2017-Sep-19 01:58N 58°06' E 006°48'0 0.0
2017-Sep-19 01:28N 58°06' E 006°48'0 0.0
2017-Sep-19 00:58N 58°06' E 006°48'0 0.0
2017-Sep-19 00:28N 58°06' E 006°48'0 0.0
2017-Sep-18 23:58N 58°06' E 006°48'0 0.0
2017-Sep-18 23:28N 58°06' E 006°48'0 0.0
2017-Sep-18 22:58N 58°06' E 006°48'0 0.0
2017-Sep-18 22:28N 58°06' E 006°48'0 0.0
2017-Sep-18 21:58N 58°06' E 006°48'0 0.0
2017-Sep-18 21:28N 58°06' E 006°48'0 0.0
2017-Sep-18 20:58N 58°06' E 006°48'0 0.0
2017-Sep-18 20:28N 58°06' E 006°48'0 0.0
2017-Sep-18 19:58N 58°06' E 006°48'0 0.0
2017-Sep-18 19:28N 58°06' E 006°48'0 0.0
2017-Sep-18 18:58N 58°06' E 006°48'0 0.0
2017-Sep-18 18:29N 58°06' E 006°48'0 0.0
2017-Sep-18 17:59N 58°06' E 006°48'2 3.5
2017-Sep-18 17:30N 58°05' E 006°51'1 2.9
2017-Sep-18 17:01N 58°06' E 006°49'0 0.4
2017-Sep-18 16:29N 58°06' E 006°48'0 0.0
2017-Sep-18 15:58N 58°06' E 006°48'0 0.0
2017-Sep-18 15:28N 58°06' E 006°48'0 0.0
2017-Sep-18 14:58N 58°06' E 006°48'0 0.0
2017-Sep-18 14:28N 58°06' E 006°48'0 0.0
2017-Sep-18 13:59N 58°06' E 006°48'0 0.0
2017-Sep-18 13:29N 58°06' E 006°48'0 0.0
2017-Sep-18 12:59N 58°06' E 006°48'0 0.0
2017-Sep-18 12:28N 58°06' E 006°48'0 0.0
2017-Sep-18 11:58N 58°06' E 006°48'0 0.0
2017-Sep-18 11:28N 58°06' E 006°48'0 0.0
2017-Sep-18 10:58N 58°06' E 006°48'0 0.0
2017-Sep-18 10:28N 58°06' E 006°48'0 0.0
2017-Sep-18 09:58N 58°06' E 006°48'0 0.0
2017-Sep-18 09:28N 58°06' E 006°48'0 0.0
2017-Sep-18 08:59N 58°06' E 006°48'0 0.0
2017-Sep-18 08:28N 58°06' E 006°48'0 0.0
2017-Sep-18 07:58N 58°06' E 006°48'0 0.0
2017-Sep-18 07:28N 58°06' E 006°48'0 0.0
2017-Sep-18 06:58N 58°06' E 006°48'0 0.0
2017-Sep-18 06:28N 58°06' E 006°48'0 0.0
2017-Sep-18 05:58N 58°06' E 006°48'0 0.0
2017-Sep-18 05:28N 58°06' E 006°48'0 0.0
2017-Sep-18 04:58N 58°06' E 006°48'0 0.0
2017-Sep-18 04:29N 58°06' E 006°48'0 0.0
2017-Sep-18 03:59N 58°06' E 006°48'0 0.0
2017-Sep-18 03:28N 58°06' E 006°48'0 0.0
2017-Sep-18 02:58N 58°06' E 006°48'0 0.0
2017-Sep-18 02:28N 58°06' E 006°48'0 0.0
2017-Sep-18 01:58N 58°06' E 006°48'0 0.0
2017-Sep-18 01:28N 58°06' E 006°48'0 0.0
2017-Sep-18 00:58N 58°06' E 006°48'0 0.0
2017-Sep-18 00:28N 58°06' E 006°48'0 0.0
2017-Sep-17 23:58N 58°06' E 006°48'0 0.0
2017-Sep-17 23:28N 58°06' E 006°48'0 0.0
2017-Sep-17 22:58N 58°06' E 006°48'0 0.0
2017-Sep-17 22:28N 58°06' E 006°48'0 0.0
2017-Sep-17 21:58N 58°06' E 006°48'0 0.0
2017-Sep-17 21:28N 58°06' E 006°48'0 0.0
2017-Sep-17 20:58N 58°06' E 006°48'0 0.0
2017-Sep-17 20:28N 58°06' E 006°48'0 0.0
2017-Sep-17 19:58N 58°06' E 006°48'0 0.0
2017-Sep-17 19:28N 58°06' E 006°48'0 0.0
2017-Sep-17 18:58N 58°06' E 006°48'0 0.0
2017-Sep-17 18:28N 58°06' E 006°48'0 0.0
2017-Sep-17 17:58N 58°06' E 006°48'0 0.0
2017-Sep-17 17:28N 58°06' E 006°48'0 0.0
2017-Sep-17 16:58N 58°06' E 006°48'0 0.0
2017-Sep-17 16:28N 58°06' E 006°48'0 0.0
2017-Sep-17 15:58N 58°06' E 006°48'0 0.0
2017-Sep-17 15:28N 58°06' E 006°48'0 0.0
2017-Sep-17 14:58N 58°06' E 006°48'0 0.0
2017-Sep-17 14:28N 58°06' E 006°48'0 0.0
2017-Sep-17 13:59N 58°06' E 006°48'0 0.0
2017-Sep-17 13:28N 58°06' E 006°48'0 0.0
2017-Sep-17 12:58N 58°06' E 006°48'0 0.0
2017-Sep-17 12:28N 58°06' E 006°48'0 0.0
2017-Sep-17 11:58N 58°06' E 006°48'0 0.0
2017-Sep-17 11:28N 58°06' E 006°48'0 0.0
2017-Sep-17 10:58N 58°06' E 006°48'0 0.0
2017-Sep-17 10:28N 58°06' E 006°48'0 0.0
2017-Sep-17 09:58N 58°06' E 006°48'0 0.0
2017-Sep-17 09:28N 58°06' E 006°48'0 0.0
2017-Sep-17 08:58N 58°06' E 006°48'0 0.0
2017-Sep-17 08:28N 58°06' E 006°48'0 0.0
2017-Sep-17 07:58N 58°06' E 006°48'0 0.0
2017-Sep-17 07:28N 58°06' E 006°48'0 0.0
2017-Sep-17 06:58N 58°06' E 006°48'0 0.0
2017-Sep-17 06:28N 58°06' E 006°48'0 0.0
2017-Sep-17 05:58N 58°06' E 006°48'0 0.0
2017-Sep-17 05:28N 58°06' E 006°48'0 0.0
2017-Sep-17 04:58N 58°06' E 006°48'0 0.0
2017-Sep-17 04:28N 58°06' E 006°48'0 0.0
2017-Sep-17 03:58N 58°06' E 006°48'0 0.0
2017-Sep-17 03:28N 58°06' E 006°48'0 0.0
2017-Sep-17 02:58N 58°06' E 006°48'0 0.0
2017-Sep-17 02:28N 58°06' E 006°48'0 0.0
2017-Sep-17 01:58N 58°06' E 006°48'0 0.0
2017-Sep-17 01:28N 58°06' E 006°48'0 0.0
2017-Sep-17 00:58N 58°06' E 006°48'0 0.0
2017-Sep-17 00:28N 58°06' E 006°48'0 0.0
2017-Sep-16 23:58N 58°06' E 006°48'0 0.0
2017-Sep-16 23:28N 58°06' E 006°48'0 0.0
2017-Sep-16 22:58N 58°06' E 006°48'0 0.0
2017-Sep-16 22:28N 58°06' E 006°48'0 0.0
2017-Sep-16 21:58N 58°06' E 006°48'0 0.0
2017-Sep-16 21:28N 58°06' E 006°48'0 0.0
2017-Sep-16 20:58N 58°06' E 006°48'0 0.0
2017-Sep-16 20:28N 58°06' E 006°48'0 0.0
2017-Sep-16 19:58N 58°06' E 006°48'0 0.0
2017-Sep-16 19:28N 58°06' E 006°48'0 0.0
2017-Sep-16 18:58N 58°06' E 006°48'0 0.0
2017-Sep-16 18:28N 58°06' E 006°48'0 0.0
2017-Sep-16 17:58N 58°06' E 006°48'0 0.0
2017-Sep-16 17:28N 58°06' E 006°48'0 0.0
2017-Sep-16 16:58N 58°06' E 006°48'0 0.0
2017-Sep-16 16:28N 58°06' E 006°48'0 0.0
2017-Sep-16 15:58N 58°06' E 006°48'0 0.0
2017-Sep-16 15:28N 58°06' E 006°48'0 0.0
2017-Sep-16 14:58N 58°06' E 006°48'0 0.0
2017-Sep-16 14:28N 58°06' E 006°48'0 0.0
2017-Sep-16 13:55N 58°06' E 006°48'0 0.0
2017-Sep-16 13:28N 58°06' E 006°48'0 0.0
2017-Sep-16 12:58N 58°06' E 006°48'0 0.0
2017-Sep-16 12:28N 58°06' E 006°48'0 0.0
2017-Sep-16 11:58N 58°06' E 006°48'0 0.0
2017-Sep-16 11:28N 58°06' E 006°48'0 0.0
2017-Sep-16 10:58N 58°06' E 006°48'0 0.0
2017-Sep-16 10:28N 58°06' E 006°48'0 0.0
2017-Sep-16 09:58N 58°06' E 006°48'0 0.0
2017-Sep-16 09:28N 58°06' E 006°48'0 0.0
2017-Sep-16 08:58N 58°06' E 006°48'0 0.0
2017-Sep-16 08:28N 58°06' E 006°48'0 0.0
2017-Sep-16 07:58N 58°06' E 006°48'0 0.0
2017-Sep-16 07:28N 58°06' E 006°48'0 0.0
2017-Sep-16 06:58N 58°06' E 006°48'0 0.0
2017-Sep-16 06:28N 58°06' E 006°48'0 0.0
2017-Sep-16 05:58N 58°06' E 006°48'0 0.0
2017-Sep-16 05:28N 58°06' E 006°48'0 0.0
2017-Sep-16 04:58N 58°06' E 006°48'0 0.0
2017-Sep-16 04:28N 58°06' E 006°48'0 0.0
2017-Sep-16 03:58N 58°06' E 006°48'0 0.0
2017-Sep-16 03:28N 58°06' E 006°48'0 0.0
2017-Sep-16 02:58N 58°06' E 006°48'0 0.0
2017-Sep-16 02:28N 58°06' E 006°48'0 0.0
2017-Sep-16 01:58N 58°06' E 006°48'0 0.0
2017-Sep-16 01:28N 58°06' E 006°48'0 0.0
2017-Sep-16 00:58N 58°06' E 006°48'0 0.0
2017-Sep-16 00:28N 58°06' E 006°48'0 0.0
2017-Sep-15 23:58N 58°06' E 006°48'0 0.0
2017-Sep-15 23:28N 58°06' E 006°48'0 0.0
2017-Sep-15 22:58N 58°06' E 006°48'0 0.0
2017-Sep-15 22:28N 58°06' E 006°48'0 0.0
2017-Sep-15 21:58N 58°06' E 006°48'0 0.0
2017-Sep-15 21:28N 58°06' E 006°48'0 0.0
2017-Sep-15 20:58N 58°06' E 006°48'0 0.0
2017-Sep-15 20:28N 58°06' E 006°48'0 0.0
2017-Sep-15 19:58N 58°06' E 006°48'0 0.0
2017-Sep-15 19:28N 58°06' E 006°48'0 0.0
2017-Sep-15 18:58N 58°06' E 006°48'0 0.0
2017-Sep-15 18:28N 58°06' E 006°48'0 0.0
2017-Sep-15 17:58N 58°06' E 006°48'0 0.0
2017-Sep-15 17:28N 58°06' E 006°48'0 0.0
2017-Sep-15 16:58N 58°06' E 006°48'0 0.0
2017-Sep-15 16:28N 58°06' E 006°48'0 0.0
2017-Sep-15 15:58N 58°06' E 006°48'0 0.0
2017-Sep-15 15:28N 58°06' E 006°48'0 0.0
2017-Sep-15 14:58N 58°06' E 006°48'0 0.0
2017-Sep-15 14:28N 58°06' E 006°48'0 0.0
2017-Sep-15 13:58N 58°06' E 006°48'0 0.0
2017-Sep-15 13:28N 58°06' E 006°48'0 0.0
2017-Sep-15 12:58N 58°06' E 006°48'0 0.0
2017-Sep-15 12:28N 58°06' E 006°48'0 0.0
2017-Sep-15 11:58N 58°06' E 006°48'0 0.0
2017-Sep-15 11:28N 58°06' E 006°48'0 0.0
2017-Sep-15 10:58N 58°06' E 006°48'0 0.0
2017-Sep-15 10:28N 58°06' E 006°48'0 0.0
2017-Sep-15 09:58N 58°06' E 006°48'0 0.0
2017-Sep-15 09:28N 58°06' E 006°48'0 0.0
2017-Sep-15 08:58N 58°06' E 006°48'0 0.0
2017-Sep-15 08:28N 58°06' E 006°48'0 0.0
2017-Sep-15 07:58N 58°06' E 006°48'0 0.0
2017-Sep-15 07:28N 58°06' E 006°48'0 0.0
2017-Sep-15 06:58N 58°06' E 006°48'0 0.0
2017-Sep-15 06:28N 58°06' E 006°48'0 0.0
2017-Sep-15 05:58N 58°06' E 006°48'0 0.0
2017-Sep-15 05:28N 58°06' E 006°48'0 0.0
2017-Sep-15 04:58N 58°06' E 006°48'0 0.0
2017-Sep-15 04:28N 58°06' E 006°48'0 0.0
2017-Sep-15 03:58N 58°06' E 006°48'0 0.0
2017-Sep-15 03:28N 58°06' E 006°48'0 0.0
2017-Sep-15 02:58N 58°06' E 006°48'0 0.0
2017-Sep-15 02:28N 58°06' E 006°48'0 0.0
2017-Sep-15 01:58N 58°06' E 006°48'0 0.0
2017-Sep-15 01:28N 58°06' E 006°48'0 0.0
2017-Sep-15 00:58N 58°06' E 006°48'0 0.0
2017-Sep-15 00:28N 58°06' E 006°48'0 0.0
2017-Sep-14 23:58N 58°06' E 006°48'0 0.0
2017-Sep-14 23:28N 58°06' E 006°48'0 0.0
2017-Sep-14 22:58N 58°06' E 006°48'0 0.0
2017-Sep-14 22:28N 58°06' E 006°48'0 0.0
2017-Sep-14 21:58N 58°06' E 006°48'0 0.0
2017-Sep-14 21:28N 58°06' E 006°48'0 0.0
2017-Sep-14 20:58N 58°06' E 006°48'0 0.0
2017-Sep-14 20:28N 58°06' E 006°48'0 0.0
2017-Sep-14 19:58N 58°06' E 006°48'0 0.0
2017-Sep-14 19:28N 58°06' E 006°48'0 0.0
2017-Sep-14 18:58N 58°06' E 006°48'0 0.0
2017-Sep-14 18:28N 58°06' E 006°48'0 0.0
2017-Sep-14 17:58N 58°06' E 006°48'0 0.0
2017-Sep-14 17:25N 58°06' E 006°48'0 0.0
2017-Sep-14 16:58N 58°06' E 006°48'0 0.0
2017-Sep-14 16:28N 58°06' E 006°48'0 0.0
2017-Sep-14 15:58N 58°06' E 006°48'0 0.0
2017-Sep-14 15:28N 58°06' E 006°48'0 0.0
2017-Sep-14 14:58N 58°06' E 006°48'0 0.0
2017-Sep-14 14:28N 58°06' E 006°48'0 0.0
2017-Sep-14 13:58N 58°06' E 006°48'0 0.0
2017-Sep-14 13:28N 58°06' E 006°48'0 0.0
2017-Sep-14 12:58N 58°06' E 006°48'0 0.0
2017-Sep-14 12:28N 58°06' E 006°48'0 0.0
2017-Sep-14 11:58N 58°06' E 006°48'0 0.0
2017-Sep-14 11:28N 58°06' E 006°48'0 0.0
2017-Sep-14 10:58N 58°06' E 006°48'0 0.0
2017-Sep-14 10:28N 58°06' E 006°48'0 0.0
2017-Sep-14 09:58N 58°06' E 006°48'0 0.0
2017-Sep-14 09:28N 58°06' E 006°48'0 0.0
2017-Sep-14 08:58N 58°06' E 006°48'0 0.0
2017-Sep-14 08:28N 58°06' E 006°48'0 0.0
2017-Sep-14 07:58N 58°06' E 006°48'0 0.0
2017-Sep-14 07:28N 58°06' E 006°48'0 0.0
2017-Sep-14 06:58N 58°06' E 006°48'0 0.0
2017-Sep-14 06:28N 58°06' E 006°48'0 0.0
2017-Sep-14 05:58N 58°06' E 006°48'0 0.0
2017-Sep-14 05:28N 58°06' E 006°48'0 0.0
2017-Sep-14 04:58N 58°06' E 006°48'0 0.0
2017-Sep-14 04:28N 58°06' E 006°48'0 0.0
2017-Sep-14 03:58N 58°06' E 006°48'0 0.0
2017-Sep-14 03:28N 58°06' E 006°48'0 0.0
2017-Sep-14 02:58N 58°06' E 006°48'0 0.0
2017-Sep-14 02:28N 58°06' E 006°48'0 0.0
2017-Sep-14 01:58N 58°06' E 006°48'0 0.0
2017-Sep-14 01:28N 58°06' E 006°48'0 0.0
2017-Sep-14 00:58N 58°06' E 006°48'0 0.0
2017-Sep-14 00:28N 58°06' E 006°48'0 0.0
2017-Sep-13 23:58N 58°06' E 006°48'0 0.0
2017-Sep-13 23:28N 58°06' E 006°48'0 0.0
2017-Sep-13 22:58N 58°06' E 006°48'0 0.0
2017-Sep-13 22:28N 58°06' E 006°48'0 0.0
2017-Sep-13 21:58N 58°06' E 006°48'  

Dump ship's entire track history